Time;durP1;ratioP1;P1;durP2;ratioP2;P2;SDS_P1;SDS_P2;PMS_P1;PMS_P2;Temp;Humidity;BMP_temperature;BMP_pressure;BME280_temperature;BME280_humidity;BME280_pressure;Samples;Min_cycle;Max_cycle;Signal;HPM_P1;HPM_P2
2022/05/01 00:00:44;;;;;;;;;8.00;7.00;;;;;11.06;45.20;102193.28;4979847;28;46368;-61
2022/05/01 00:03:30;;;;;;;;;6.00;6.00;;;;;11.04;44.90;102192.47;4980517;28;45692;-60
2022/05/01 00:05:55;;;;;;;;;9.67;8.00;;;;;11.04;45.18;102192.47;4980155;28;45393;-61
2022/05/01 00:08:20;;;;;;;;;8.33;8.33;;;;;11.03;45.15;102190.72;4978796;28;63159;-60
2022/05/01 00:10:45;;;;;;;;;9.67;9.33;;;;;10.99;45.59;102188.19;4979162;28;68218;-61
2022/05/01 00:13:11;;;;;;;;;9.00;9.00;;;;;10.93;45.05;102184.78;4979586;28;61352;-60
2022/05/01 00:15:37;;;;;;;;;10.67;8.33;;;;;10.91;45.58;102183.09;4962950;28;45504;-60
2022/05/01 00:18:03;;;;;;;;;10.00;8.00;;;;;10.85;45.59;102178.84;4979999;28;45431;-60
2022/05/01 00:20:28;;;;;;;;;9.33;7.33;;;;;10.78;46.65;102184.38;4980191;28;46010;-60
2022/05/01 00:22:54;;;;;;;;;9.67;9.67;;;;;10.73;45.92;102181.88;4979712;28;45468;-60
2022/05/01 00:25:19;;;;;;;;;8.67;8.33;;;;;10.71;45.50;102184.53;4979726;28;59675;-61
2022/05/01 00:27:44;;;;;;;;;10.33;9.00;;;;;10.71;45.92;102179.22;4980012;28;45404;-60
2022/05/01 00:30:10;;;;;;;;;8.67;8.33;;;;;10.70;46.63;102182.81;4979379;28;64552;-60
2022/05/01 00:38:03;;;;;;;;;12.33;9.00;;;;;10.61;46.15;102174.22;4979540;28;45445;-60
2022/05/01 00:40:29;;;;;;;;;13.00;9.00;;;;;10.60;47.51;102181.34;4980061;28;46131;-60
2022/05/01 00:42:54;;;;;;;;;9.00;9.00;;;;;10.55;47.45;102173.47;4978973;28;64780;-60
2022/05/01 00:45:20;;;;;;;;;8.33;6.33;;;;;10.51;47.59;102169.16;4979767;28;45338;-60
2022/05/01 00:47:45;;;;;;;;;8.00;7.00;;;;;10.48;46.37;102171.03;4980949;28;45563;-60
2022/05/01 00:50:10;;;;;;;;;10.67;9.67;;;;;10.46;47.19;102168.41;4979917;28;46201;-61
2022/05/01 00:52:36;;;;;;;;;7.67;7.33;;;;;10.45;46.85;102165.81;4979344;28;53108;-61
2022/05/01 00:55:01;;;;;;;;;6.00;6.00;;;;;10.39;46.87;102166.81;4978864;28;61736;-61
2022/05/01 00:57:26;;;;;;;;;11.67;9.00;;;;;10.33;47.74;102161.66;4978937;28;62564;-60
2022/05/01 00:59:52;;;;;;;;;13.33;10.33;;;;;10.29;47.76;102163.53;4978762;28;59620;-60
2022/05/01 01:02:17;;;;;;;;;13.67;10.00;;;;;10.24;47.18;102168.09;4978877;28;63975;-60
2022/05/01 01:04:43;;;;;;;;;13.67;7.67;;;;;10.22;47.51;102154.84;4978905;28;56114;-60
2022/05/01 01:07:08;;;;;;;;;11.00;9.33;;;;;10.23;47.24;102158.38;4978746;28;60179;-60
2022/05/01 01:09:35;;;;;;;;;12.67;9.67;;;;;10.23;47.75;102153.03;4979732;28;46913;-60
2022/05/01 01:14:44;;;;;;;;;10.00;6.67;;;;;10.14;47.94;102155.94;4979667;28;45444;-60
2022/05/01 01:17:10;;;;;;;;;12.33;9.67;;;;;10.09;48.21;102159.63;4979258;28;45302;-60
2022/05/01 01:19:35;;;;;;;;;11.33;7.00;;;;;10.08;48.03;102159.66;4979647;28;46273;-60
2022/05/01 01:22:01;;;;;;;;;11.67;9.00;;;;;10.06;48.14;102156.16;4978178;28;64980;-61
2022/05/01 01:24:27;;;;;;;;;11.00;11.00;;;;;10.04;48.64;102163.31;4948842;28;45271;-60
2022/05/01 01:26:52;;;;;;;;;10.00;10.00;;;;;10.02;48.17;102162.47;4960648;28;61390;-61
2022/05/01 01:32:02;;;;;;;;;13.00;10.67;;;;;10.00;48.27;102157.19;4977934;28;45360;-60
2022/05/01 01:34:31;;;;;;;;;9.67;9.67;;;;;9.97;48.42;102153.75;4962064;28;45255;-60
2022/05/01 01:36:56;;;;;;;;;13.00;10.67;;;;;9.93;48.43;102153.84;4978868;28;45385;-60
2022/05/01 01:39:23;;;;;;;;;8.00;7.67;;;;;9.92;48.27;102157.41;4978508;28;65786;-60
2022/05/01 01:41:48;;;;;;;;;11.33;10.67;;;;;9.88;48.60;102147.75;4978917;28;45766;-60
2022/05/01 01:44:14;;;;;;;;;10.67;9.67;;;;;9.87;48.78;102153.13;4961207;28;61714;-60
2022/05/01 01:46:40;;;;;;;;;13.00;11.67;;;;;9.85;49.00;102157.59;4963866;28;45662;-60
2022/05/01 01:49:09;;;;;;;;;11.00;10.67;;;;;9.82;49.13;102147.91;4978637;28;46920;-60
2022/05/01 01:51:35;;;;;;;;;18.67;14.33;;;;;9.80;48.83;102154.16;4979175;28;45322;-60
2022/05/01 01:54:00;;;;;;;;;11.33;11.00;;;;;9.76;48.86;102153.38;4976594;28;58281;-60
2022/05/01 01:56:26;;;;;;;;;13.33;11.33;;;;;9.75;48.98;102154.28;4971921;28;45318;-60
2022/05/01 01:58:51;;;;;;;;;16.33;12.33;;;;;9.76;49.08;102153.38;4977774;28;66329;-60
2022/05/01 02:01:16;;;;;;;;;13.00;12.00;;;;;9.73;50.14;102146.34;4978367;28;61274;-60
2022/05/01 02:03:42;;;;;;;;;12.00;12.00;;;;;9.69;49.34;102143.81;4978139;28;58262;-60
2022/05/01 02:06:08;;;;;;;;;13.00;10.00;;;;;9.69;49.10;102147.34;4978459;28;60633;-60
2022/05/01 02:08:34;;;;;;;;;12.33;12.00;;;;;9.70;49.22;102140.22;4978620;28;46284;-60
2022/05/01 02:11:02;;;;;;;;;12.67;10.67;;;;;9.68;49.66;102137.63;4961087;28;45294;-60
2022/05/01 02:13:27;;;;;;;;;15.33;14.00;;;;;9.67;49.76;102141.19;4979053;28;45362;-60
2022/05/01 02:15:53;;;;;;;;;9.67;8.00;;;;;9.66;49.97;102133.25;4977661;28;59940;-60
2022/05/01 02:18:18;;;;;;;;;13.33;12.33;;;;;9.64;49.42;102135.09;4978702;28;46008;-60
2022/05/01 02:23:28;;;;;;;;;14.33;12.67;;;;;9.64;49.66;102135.09;4978989;28;45434;-60
2022/05/01 02:25:54;;;;;;;;;13.33;12.00;;;;;9.63;49.55;102138.66;4960899;28;45654;-60
2022/05/01 02:28:19;;;;;;;;;14.33;12.67;;;;;9.65;49.38;102142.13;4978199;28;49148;-60
2022/05/01 02:30:44;;;;;;;;;17.67;12.00;;;;;9.63;50.04;102128.88;4977667;28;64791;-60
2022/05/01 02:33:10;;;;;;;;;14.00;10.33;;;;;9.64;50.06;102129.78;4981572;28;61757;-60
2022/05/01 02:35:36;;;;;;;;;16.00;13.00;;;;;9.61;49.86;102130.72;4982258;28;45305;-60
2022/05/01 02:38:04;;;;;;;;;18.33;13.33;;;;;9.58;49.92;102123.72;4981531;28;45441;-60
2022/05/01 02:40:30;;;;;;;;;14.67;12.33;;;;;9.57;49.87;102124.59;4981980;28;45630;-60
2022/05/01 02:42:58;;;;;;;;;15.67;14.33;;;;;9.60;50.13;102128.97;4963943;28;45484;-60
2022/05/01 02:45:24;;;;;;;;;11.67;11.67;;;;;9.60;49.96;102127.19;4981748;28;45297;-60
2022/05/01 02:47:49;;;;;;;;;13.00;10.33;;;;;9.61;49.92;102128.06;4982388;28;45382;-60
2022/05/01 02:50:14;;;;;;;;;14.00;13.00;;;;;9.59;49.96;102120.16;4981779;28;45242;-60
2022/05/01 02:52:40;;;;;;;;;16.67;14.33;;;;;9.59;50.01;102113.94;4980234;28;62409;-60
2022/05/01 02:55:06;;;;;;;;;16.67;14.67;;;;;9.58;49.88;102118.41;4981248;28;59639;-60
2022/05/01 02:57:31;;;;;;;;;18.33;15.00;;;;;9.58;50.00;102110.41;4981225;28;46140;-60
2022/05/01 02:59:56;;;;;;;;;15.00;13.00;;;;;9.59;49.98;102108.63;4980496;28;63267;-60
2022/05/01 03:02:22;;;;;;;;;16.00;14.00;;;;;9.56;50.59;102104.25;4981231;28;45508;-60
2022/05/01 03:04:47;;;;;;;;;19.67;15.33;;;;;9.54;50.70;102106.09;4980626;28;55197;-60
2022/05/01 03:07:13;;;;;;;;;15.67;13.00;;;;;9.51;50.15;102111.47;4980755;28;64150;-60
2022/05/01 03:09:38;;;;;;;;;17.33;15.00;;;;;9.52;50.49;102107.06;4981493;28;45378;-60
2022/05/01 03:12:05;;;;;;;;;16.00;14.67;;;;;9.52;50.52;102101.75;4980515;28;58347;-60
2022/05/01 03:14:31;;;;;;;;;16.33;14.33;;;;;9.51;50.51;102098.19;4981572;28;45493;-60
2022/05/01 03:16:56;;;;;;;;;12.67;12.00;;;;;9.52;50.13;102105.25;4980617;28;46320;-60
2022/05/01 03:22:11;;;;;;;;;14.67;13.33;;;;;9.52;50.40;102097.28;4981380;28;45453;-60
2022/05/01 03:24:38;;;;;;;;;12.67;12.67;;;;;9.49;50.60;102084.09;4981229;28;45302;-60
2022/05/01 03:27:04;;;;;;;;;18.67;15.00;;;;;9.44;51.03;102092.16;4978225;28;46892;-60
2022/05/01 03:29:30;;;;;;;;;14.00;14.00;;;;;9.42;50.82;102093.97;4963441;28;45780;-60
2022/05/01 03:31:55;;;;;;;;;14.67;12.67;;;;;9.39;50.79;102087.88;4979994;28;61293;-60
2022/05/01 03:34:22;;;;;;;;;21.33;16.33;;;;;9.41;50.62;102094.91;4980559;28;58422;-60
2022/05/01 03:36:48;;;;;;;;;21.00;20.00;;;;;9.41;50.91;102081.63;4978292;28;46984;-60
2022/05/01 03:39:15;;;;;;;;;16.33;14.67;;;;;9.39;51.17;102087.88;4980918;28;45254;-60
2022/05/01 03:41:40;;;;;;;;;21.00;15.00;;;;;9.38;51.15;102086.13;4980476;28;45380;-61
2022/05/01 03:44:07;;;;;;;;;21.33;17.33;;;;;9.35;51.39;102095.03;4979955;28;45290;-60
2022/05/01 03:46:33;;;;;;;;;17.00;14.67;;;;;9.35;51.10;102096.84;4982701;28;46262;-60
2022/05/01 03:48:59;;;;;;;;;16.33;14.33;;;;;9.33;51.88;102091.53;4980008;28;45536;-60
2022/05/01 03:51:24;;;;;;;;;20.00;18.00;;;;;9.29;51.27;102086.38;4979821;28;61650;-60
2022/05/01 03:53:49;;;;;;;;;17.67;14.67;;;;;9.30;51.66;102085.47;4980325;28;45159;-60
2022/05/01 03:56:15;;;;;;;;;15.33;14.00;;;;;9.28;51.31;102085.47;4979650;28;65931;-60
2022/05/01 03:58:40;;;;;;;;;18.00;14.67;;;;;9.28;51.39;102085.47;4979536;28;45380;-60
2022/05/01 04:01:07;;;;;;;;;18.33;18.00;;;;;9.27;51.63;102087.25;4979870;28;57675;-60
2022/05/01 04:03:32;;;;;;;;;18.33;16.00;;;;;9.26;51.47;102082.84;4980852;28;45605;-60
2022/05/01 04:05:58;;;;;;;;;15.67;14.00;;;;;9.24;51.51;102092.66;4979206;28;65395;-60
2022/05/01 04:08:24;;;;;;;;;20.00;16.33;;;;;9.25;51.71;102085.56;4980397;28;45456;-60
2022/05/01 04:10:49;;;;;;;;;22.50;19.00;;;;;9.25;51.20;102086.41;4980104;28;45449;-60
2022/05/01 04:13:14;;;;;;;;;17.33;17.33;;;;;9.26;51.39;102076.69;4979898;28;61592;-60
2022/05/01 04:15:41;;;;;;;;;20.33;18.67;;;;;9.26;51.46;102084.66;4979331;28;45382;-60
2022/05/01 04:18:08;;;;;;;;;24.33;19.00;;;;;9.26;51.47;102079.34;4980471;28;45660;-60
2022/05/01 04:20:33;;;;;;;;;18.67;15.33;;;;;9.26;51.59;102074.03;4980331;28;45274;-60
2022/05/01 04:22:59;;;;;;;;;17.00;16.67;;;;;9.27;51.56;102078.44;4979468;28;45432;-60
2022/05/01 04:25:32;;;;;;;;;18.00;14.33;;;;;9.24;51.69;102073.19;4979810;28;54080;-61
2022/05/01 04:27:59;;;;;;;;;18.67;17.67;;;;;9.23;51.76;102080.28;4979364;28;45366;-60
2022/05/01 04:30:26;;;;;;;;;29.00;18.67;;;;;9.21;52.30;102074.13;4980074;28;45389;-60
2022/05/01 04:32:53;;;;;;;;;22.00;20.33;;;;;9.18;52.07;102078.66;4979701;28;45522;-60
2022/05/01 04:35:37;;;;;;;;;18.67;16.33;;;;;9.16;52.22;102083.13;4979915;28;46540;-60
2022/05/01 04:38:04;;;;;;;;;22.00;19.67;;;;;9.14;51.88;102077.84;4976688;28;45420;-60
2022/05/01 04:40:34;;;;;;;;;22.00;18.33;;;;;9.16;52.04;102076.03;4980162;28;45255;-60
2022/05/01 04:43:11;;;;;;;;;21.00;20.00;;;;;9.21;51.69;102083.88;4979358;28;45458;-60
2022/05/01 04:45:38;;;;;;;;;24.00;19.67;;;;;9.27;51.95;102081.09;4980405;28;45690;-60
2022/05/01 04:48:06;;;;;;;;;22.33;20.67;;;;;9.31;51.76;102079.22;4980924;28;45402;-60
2022/05/01 04:50:31;;;;;;;;;20.67;16.33;;;;;9.32;51.70;102080.97;4979878;28;45324;-60
2022/05/01 04:52:57;;;;;;;;;18.33;18.00;;;;;9.33;51.95;102082.72;4979176;28;46127;-60
2022/05/01 04:55:22;;;;;;;;;20.67;19.00;;;;;9.33;51.65;102080.06;4978962;28;45384;-61
2022/05/01 04:57:49;;;;;;;;;25.33;19.67;;;;;9.32;52.06;102081.84;4979134;28;45508;-60
2022/05/01 05:00:14;;;;;;;;;16.00;16.00;;;;;9.27;52.18;102086.41;4979836;28;45376;-60
2022/05/01 05:02:41;;;;;;;;;21.33;20.67;;;;;9.24;52.17;102092.66;4979350;28;45576;-60
2022/05/01 05:05:08;;;;;;;;;17.67;17.67;;;;;9.25;52.12;102091.72;4979621;28;46309;-60
2022/05/01 05:07:33;;;;;;;;;20.67;18.33;;;;;9.26;52.12;102100.59;4979153;28;45402;-60
2022/05/01 05:09:59;;;;;;;;;28.33;20.00;;;;;9.27;52.27;102097.88;4978617;28;57937;-60
2022/05/01 05:12:24;;;;;;;;;22.67;18.33;;;;;9.31;51.87;102103.09;4979672;28;45222;-60
2022/05/01 05:14:52;;;;;;;;;21.00;18.33;;;;;9.39;52.02;102106.47;4979149;28;46832;-60
2022/05/01 05:17:20;;;;;;;;;24.00;20.67;;;;;9.49;51.82;102110.66;4976238;28;45428;-60
2022/05/01 05:19:47;;;;;;;;;20.67;17.00;;;;;9.59;51.82;102105.97;4979040;28;45453;-60
2022/05/01 05:22:12;;;;;;;;;22.33;17.00;;;;;9.65;51.43;102105.81;4979495;28;45234;-60
2022/05/01 05:24:38;;;;;;;;;23.67;20.67;;;;;9.71;51.44;102108.34;4979305;28;45223;-60
2022/05/01 05:27:04;;;;;;;;;18.33;18.00;;;;;9.78;51.27;102106.38;4978790;28;45382;-60
2022/05/01 05:29:29;;;;;;;;;19.67;18.00;;;;;9.84;51.88;102121.28;4979463;28;45570;-60
2022/05/01 05:31:54;;;;;;;;;18.00;17.33;;;;;9.88;51.31;102112.31;4978312;28;57639;-60
2022/05/01 05:34:20;;;;;;;;;24.33;15.33;;;;;9.88;51.11;102109.66;4979217;28;46088;-60
2022/05/01 05:36:45;;;;;;;;;26.33;20.67;;;;;9.87;51.27;102115.91;4978212;28;63805;-60
2022/05/01 05:39:11;;;;;;;;;23.00;20.00;;;;;9.87;51.72;102121.22;4979326;28;45400;-60
2022/05/01 05:41:36;;;;;;;;;22.00;19.00;;;;;9.89;51.76;102120.25;4978775;28;55749;-61
2022/05/01 05:44:02;;;;;;;;;20.00;18.00;;;;;9.90;51.68;102116.69;4978156;28;64510;-60
2022/05/01 05:46:27;;;;;;;;;20.33;18.33;;;;;9.92;51.38;102112.22;4981159;28;46421;-60
2022/05/01 05:48:52;;;;;;;;;26.33;19.67;;;;;9.94;51.71;102102.38;4978759;28;45251;-60
2022/05/01 05:51:18;;;;;;;;;20.33;17.67;;;;;9.97;51.24;102100.56;4978946;28;45375;-60
2022/05/01 05:53:43;;;;;;;;;21.33;19.33;;;;;10.04;51.11;102103.03;4977780;28;66798;-60
2022/05/01 05:56:09;;;;;;;;;21.33;21.33;;;;;10.13;51.75;102099.25;4978597;28;53939;-60
2022/05/01 05:58:34;;;;;;;;;18.00;16.67;;;;;10.20;50.69;102094.63;4979433;28;45431;-60
2022/05/01 06:01:00;;;;;;;;;27.00;23.67;;;;;10.25;51.68;102096.25;4960207;28;60448;-60
2022/05/01 06:03:25;;;;;;;;;22.67;18.33;;;;;10.33;51.22;102095.16;4979132;28;45472;-60
2022/05/01 06:05:50;;;;;;;;;24.67;22.33;;;;;10.43;50.76;102104.66;4978055;28;60770;-60
2022/05/01 06:08:16;;;;;;;;;23.67;19.67;;;;;10.52;50.83;102098.19;4982325;28;45412;-61
2022/05/01 06:10:41;;;;;;;;;27.00;22.33;;;;;10.64;50.37;102096.94;4982049;28;45266;-60
2022/05/01 06:13:07;;;;;;;;;25.00;21.00;;;;;10.79;50.34;102106.28;4982271;28;45890;-61
2022/05/01 06:15:32;;;;;;;;;26.00;23.00;;;;;10.92;50.16;102104.97;4981561;28;62569;-60
2022/05/01 06:17:58;;;;;;;;;23.33;20.33;;;;;11.06;49.89;102110.75;4981296;28;57304;-61
2022/05/01 06:20:23;;;;;;;;;21.00;20.00;;;;;11.23;49.88;102109.34;4982288;28;45222;-61
2022/05/01 06:22:50;;;;;;;;;22.33;19.00;;;;;11.42;49.49;102109.63;4980791;28;67125;-61
2022/05/01 06:25:15;;;;;;;;;28.67;20.00;;;;;11.67;49.05;102112.34;4982137;28;45277;-61
2022/05/01 06:27:41;;;;;;;;;27.67;23.00;;;;;11.95;48.97;102114.09;4981327;28;45210;-61
2022/05/01 06:30:07;;;;;;;;;25.00;21.33;;;;;12.27;48.65;102106.75;4981184;28;59429;-61
2022/05/01 06:32:33;;;;;;;;;20.67;17.67;;;;;12.62;48.05;102107.25;4982119;28;47092;-61
2022/05/01 06:34:58;;;;;;;;;24.67;19.33;;;;;12.97;47.25;102106.78;4963748;28;45783;-61
2022/05/01 06:37:24;;;;;;;;;28.00;23.67;;;;;13.29;46.80;102105.50;4981831;28;47736;-61
2022/05/01 06:39:50;;;;;;;;;26.67;22.00;;;;;13.59;46.47;102109.69;4980958;28;58943;-61
2022/05/01 06:42:15;;;;;;;;;22.00;19.33;;;;;13.83;45.85;102115.78;4964385;28;45349;-61
2022/05/01 06:44:40;;;;;;;;;25.33;21.67;;;;;14.04;45.36;102122.00;4981247;28;45435;-61
2022/05/01 06:47:08;;;;;;;;;28.33;24.00;;;;;14.21;45.04;102118.63;4983526;28;57993;-61
2022/05/01 06:49:33;;;;;;;;;22.33;20.67;;;;;14.38;44.86;102124.06;4980894;28;45361;-61
2022/05/01 06:51:59;;;;;;;;;21.00;20.00;;;;;14.56;44.53;102119.69;4981046;28;45304;-61
2022/05/01 06:54:24;;;;;;;;;26.00;23.33;;;;;14.83;44.18;102122.03;4981500;28;45283;-61
2022/05/01 06:56:49;;;;;;;;;27.67;24.33;;;;;15.11;43.44;102119.84;4963133;28;60961;-62
2022/05/01 06:59:16;;;;;;;;;31.33;27.00;;;;;15.39;43.29;102124.75;4980870;28;60048;-61
2022/05/01 07:01:42;;;;;;;;;27.33;21.00;;;;;15.65;42.95;102115.38;4980879;28;46214;-61
2022/05/01 07:04:07;;;;;;;;;27.00;25.00;;;;;15.91;42.28;102110.53;4980744;28;63707;-61
2022/05/01 07:06:33;;;;;;;;;34.67;27.67;;;;;16.10;42.08;102110.47;4981452;28;45565;-61
2022/05/01 07:08:58;;;;;;;;;29.67;27.33;;;;;16.33;41.66;102106.53;4980822;28;45275;-61
2022/05/01 07:11:23;;;;;;;;;23.00;22.33;;;;;16.54;41.25;102106.31;4980181;28;48270;-61
2022/05/01 07:13:49;;;;;;;;;33.67;29.33;;;;;16.71;40.24;102100.00;4980230;28;62613;-62
2022/05/01 07:16:14;;;;;;;;;31.00;26.33;;;;;16.90;40.24;102102.56;4981451;28;46034;-62
2022/05/01 07:18:40;;;;;;;;;26.00;23.00;;;;;17.27;39.60;102103.16;4979999;28;45544;-62
2022/05/01 07:21:05;;;;;;;;;29.67;25.33;;;;;17.64;39.23;102103.69;4980577;28;63015;-62
2022/05/01 07:23:30;;;;;;;;;28.33;26.33;;;;;18.01;38.85;102108.72;4981019;28;45286;-62
2022/05/01 07:25:56;;;;;;;;;29.67;26.67;;;;;18.41;38.13;102098.19;4980435;28;45354;-62
2022/05/01 07:28:22;;;;;;;;;26.67;26.00;;;;;18.85;37.96;102094.47;4980914;28;45374;-62
2022/05/01 07:30:47;;;;;;;;;30.33;28.33;;;;;19.33;37.05;102102.19;4980380;28;46164;-62
2022/05/01 07:33:13;;;;;;;;;33.33;26.67;;;;;19.96;36.47;102107.84;4962884;28;60609;-62
2022/05/01 07:35:39;;;;;;;;;32.00;27.00;;;;;20.72;35.56;102105.22;4980642;28;58123;-62
2022/05/01 07:38:04;;;;;;;;;31.00;25.33;;;;;21.29;34.85;102097.47;4980640;28;45231;-62
2022/05/01 07:40:30;;;;;;;;;29.00;27.67;;;;;21.77;33.09;102105.56;4979699;28;45419;-62
2022/05/01 07:42:55;;;;;;;;;30.00;26.00;;;;;22.06;32.61;102105.13;4980219;28;45608;-62
2022/05/01 07:45:20;;;;;;;;;29.67;25.67;;;;;22.40;32.82;102098.94;4980140;28;56609;-62
2022/05/01 07:47:46;;;;;;;;;28.67;25.67;;;;;22.65;31.63;102091.53;4982806;28;45386;-62
2022/05/01 07:50:12;;;;;;;;;28.67;25.67;;;;;22.79;31.45;102094.81;4979537;28;45422;-61
2022/05/01 07:52:38;;;;;;;;;28.00;25.33;;;;;23.08;30.76;102088.84;4980411;28;45374;-62
2022/05/01 07:55:04;;;;;;;;;28.33;23.67;;;;;23.44;29.97;102085.88;4979861;28;45344;-62
2022/05/01 07:57:29;;;;;;;;;25.67;24.00;;;;;23.69;29.33;102083.78;4980503;28;45457;-62
2022/05/01 07:59:54;;;;;;;;;28.67;24.00;;;;;23.89;27.93;102091.09;4979198;28;68352;-63
2022/05/01 08:02:20;;;;;;;;;22.67;21.33;;;;;24.03;29.02;102070.91;4979592;28;62874;-62
2022/05/01 08:04:46;;;;;;;;;23.33;21.33;;;;;24.08;28.67;102076.78;4980370;28;45803;-62
2022/05/01 08:07:11;;;;;;;;;24.67;22.67;;;;;24.16;27.69;102070.69;4962937;28;45387;-62
2022/05/01 08:09:37;;;;;;;;;24.00;19.33;;;;;24.25;27.52;102071.75;4962437;28;65227;-62
2022/05/01 08:12:02;;;;;;;;;17.33;17.33;;;;;24.36;26.40;102073.50;4979795;28;45266;-62
2022/05/01 08:14:28;;;;;;;;;20.00;17.00;;;;;24.63;27.52;102064.75;4980690;28;45287;-62
2022/05/01 08:16:53;;;;;;;;;19.00;16.67;;;;;25.16;27.29;102077.16;4979836;28;45531;-63
2022/05/01 08:22:05;;;;;;;;;22.00;20.33;;;;;26.15;25.51;102069.75;4979721;28;45394;-63
2022/05/01 08:24:30;;;;;;;;;18.67;18.33;;;;;26.86;24.43;102060.97;4980432;28;45674;-63
2022/05/01 08:26:56;;;;;;;;;20.33;18.00;;;;;27.78;24.17;102068.97;4979462;28;45314;-63
2022/05/01 08:29:21;;;;;;;;;21.67;19.00;;;;;28.72;23.34;102066.41;4979156;28;46150;-63
2022/05/01 08:31:47;;;;;;;;;22.33;21.33;;;;;29.48;21.96;102058.19;4979015;28;45243;-63
2022/05/01 08:34:12;;;;;;;;;19.67;19.33;;;;;30.18;21.65;102053.94;4980171;28;45577;-63
2022/05/01 08:36:38;;;;;;;;;20.00;17.67;;;;;30.81;21.46;102060.38;4962341;28;45582;-63
2022/05/01 08:39:04;;;;;;;;;19.33;16.00;;;;;31.37;19.98;102052.94;4979632;28;46140;-63
2022/05/01 08:41:31;;;;;;;;;21.67;19.67;;;;;31.60;17.96;102056.53;4979360;28;45426;-63
2022/05/01 08:43:56;;;;;;;;;22.33;17.00;;;;;31.88;19.68;102046.84;4979573;28;45475;-63
2022/05/01 08:46:57;;;;;;;;;18.00;17.67;;;;;32.55;18.39;102048.59;4982148;28;45326;-63
2022/05/01 08:49:22;;;;;;;;;21.33;16.33;;;;;33.08;17.40;102042.84;4965441;28;46729;-63
2022/05/01 08:51:48;;;;;;;;;19.33;18.67;;;;;33.22;17.62;102042.97;4979227;28;45377;-63
2022/05/01 08:54:14;;;;;;;;;22.33;20.33;;;;;33.26;17.45;102049.81;4962434;28;45393;-63
2022/05/01 08:56:41;;;;;;;;;22.00;18.67;;;;;33.21;16.20;102044.88;4979645;28;45479;-63
2022/05/01 08:59:14;;;;;;;;;20.67;18.00;;;;;32.87;17.58;102053.84;4979307;28;46457;-63
2022/05/01 09:01:40;;;;;;;;;21.67;19.33;;;;;32.93;17.99;102042.06;4979196;28;45575;-63
2022/05/01 09:04:06;;;;;;;;;17.67;17.33;;;;;33.08;16.95;102055.78;4979653;28;45320;-64
2022/05/01 09:06:35;;;;;;;;;20.67;18.00;;;;;33.17;17.54;102049.09;4979416;28;45353;-63
2022/05/01 09:09:07;;;;;;;;;22.00;17.33;;;;;33.20;17.52;102045.09;4978971;28;46295;-63
2022/05/01 09:14:16;;;;;;;;;20.33;17.33;;;;;33.41;16.77;102041.47;4978642;28;45354;-64
2022/05/01 09:16:42;;;;;;;;;16.33;15.00;;;;;33.63;17.09;102036.78;4978228;28;56864;-64
2022/05/01 09:19:07;;;;;;;;;21.67;19.33;;;;;33.53;16.93;102045.38;4978774;28;59149;-64
2022/05/01 09:21:50;;;;;;;;;18.00;17.00;;;;;34.00;17.31;102037.44;4961248;28;54445;-64
2022/05/01 09:24:25;;;;;;;;;22.33;17.67;;;;;34.91;16.92;102032.75;4974158;28;45433;-64
2022/05/01 09:26:50;;;;;;;;;19.67;19.33;;;;;35.87;15.54;102036.19;4962321;28;45434;-64
2022/05/01 09:29:20;;;;;;;;;20.33;19.33;;;;;36.43;14.08;102045.81;4947891;28;64972;-64
2022/05/01 09:31:46;;;;;;;;;19.00;15.33;;;;;36.64;14.80;102039.09;4978479;28;45323;-63
2022/05/01 09:34:25;;;;;;;;;20.00;19.00;;;;;36.94;14.11;102040.44;4979410;28;45452;-64
2022/05/01 09:36:51;;;;;;;;;17.00;16.33;;;;;36.50;15.00;102040.25;4977309;28;45667;-64
2022/05/01 09:39:18;;;;;;;;;19.33;18.00;;;;;36.44;15.41;102025.38;4979219;28;46372;-64
2022/05/01 09:41:43;;;;;;;;;21.33;18.00;;;;;36.64;14.06;102028.00;4980103;28;45331;-64
2022/05/01 09:44:14;;;;;;;;;15.67;15.67;;;;;36.46;14.95;102028.75;4982805;28;45210;-63
2022/05/01 09:46:40;;;;;;;;;20.00;17.00;;;;;36.27;13.76;102022.22;4983950;28;45437;-64
2022/05/01 09:49:13;;;;;;;;;18.33;17.67;;;;;36.37;15.89;102025.38;4981126;28;54292;-64
2022/05/01 09:51:42;;;;;;;;;14.33;13.67;;;;;36.38;15.01;102023.47;4976800;28;45290;-64
2022/05/01 09:54:08;;;;;;;;;15.00;14.33;;;;;36.34;14.95;102024.94;4982613;28;45499;-64
2022/05/01 09:56:48;;;;;;;;;16.33;15.00;;;;;36.03;13.74;102021.03;4982270;28;45525;-64
2022/05/01 09:59:14;;;;;;;;;19.00;15.67;;;;;35.19;14.86;102015.13;4982327;28;46977;-63
2022/05/01 10:01:40;;;;;;;;;17.00;14.33;;;;;34.83;14.36;102019.13;4981963;28;45278;-63
2022/05/01 10:04:06;;;;;;;;;18.67;14.33;;;;;34.19;15.13;102010.19;4982291;28;45298;-64
2022/05/01 10:06:32;;;;;;;;;18.67;16.00;;;;;33.59;14.78;102013.41;4964941;28;46174;-63
2022/05/01 10:08:57;;;;;;;;;18.33;18.00;;;;;32.89;15.71;102003.03;4981722;28;45255;-63
2022/05/01 10:11:26;;;;;;;;;14.00;14.00;;;;;32.64;15.76;101999.78;4982599;28;45307;-63
2022/05/01 10:13:51;;;;;;;;;15.00;13.33;;;;;32.89;15.69;102004.94;4981867;28;45287;-63
2022/05/01 10:16:17;;;;;;;;;14.00;13.00;;;;;33.05;15.62;102004.69;4981532;28;56878;-63
2022/05/01 10:18:46;;;;;;;;;12.00;12.00;;;;;33.17;15.34;102001.38;4981528;28;46965;-63
2022/05/01 10:21:12;;;;;;;;;14.67;13.67;;;;;32.92;15.15;101999.03;4982085;28;45378;-63
2022/05/01 10:23:38;;;;;;;;;12.67;10.67;;;;;32.64;16.06;102002.53;4982229;28;45371;-63
2022/05/01 10:26:13;;;;;;;;;11.67;10.67;;;;;32.88;16.13;101990.31;4981913;28;45383;-63
2022/05/01 10:29:11;;;;;;;;;12.67;12.67;;;;;33.11;15.49;101984.56;4981452;28;45403;-63
2022/05/01 10:35:09;;;;;;;;;10.67;9.67;;;;;32.51;15.14;101972.09;4981875;28;45295;-63
2022/05/01 10:37:41;;;;;;;;;11.00;10.67;;;;;32.42;13.98;101977.72;4979791;28;45382;-63
2022/05/01 10:40:06;;;;;;;;;11.00;9.33;;;;;32.02;14.90;101985.47;4981016;28;45536;-63
2022/05/01 10:42:38;;;;;;;;;17.00;14.67;;;;;31.70;14.63;101982.03;4981048;28;65205;-63
2022/05/01 10:45:22;;;;;;;;;12.00;11.00;;;;;31.78;15.75;101967.34;4981094;28;45345;-63
2022/05/01 10:47:48;;;;;;;;;9.67;9.67;;;;;31.89;15.62;101958.63;4966454;28;45640;-63
2022/05/01 10:50:25;;;;;;;;;9.67;9.67;;;;;32.12;15.27;101961.25;4981726;28;46117;-63
2022/05/01 10:53:03;;;;;;;;;9.00;9.00;;;;;32.06;14.75;101952.91;4964534;28;45556;-63
2022/05/01 10:55:44;;;;;;;;;11.33;10.33;;;;;31.67;14.87;101964.03;4981882;28;45424;-63
2022/05/01 10:58:23;;;;;;;;;9.67;9.33;;;;;31.61;15.69;101958.41;4980706;28;45346;-63
2022/05/01 11:00:50;;;;;;;;;10.75;9.75;;;;;31.72;15.01;101951.59;4963236;28;46087;-63
2022/05/01 11:03:22;;;;;;;;;12.33;10.67;;;;;31.64;14.35;101953.44;4981716;28;45156;-63
2022/05/01 11:05:50;;;;;;;;;14.67;9.67;;;;;31.46;15.83;101947.38;4981071;28;45278;-63
2022/05/01 11:08:15;;;;;;;;;11.33;10.00;;;;;31.50;16.05;101949.59;4981320;28;45379;-63
2022/05/01 11:10:41;;;;;;;;;10.33;10.33;;;;;31.21;15.69;101944.03;4963340;28;45882;-63
2022/05/01 11:13:08;;;;;;;;;10.33;10.33;;;;;30.74;15.24;101945.97;4980091;28;45262;-63
2022/05/01 11:15:33;;;;;;;;;12.33;9.33;;;;;30.16;16.42;101933.44;4981234;28;45432;-63
2022/05/01 11:17:59;;;;;;;;;10.00;10.00;;;;;30.15;16.37;101928.97;4949128;28;45373;-63
2022/05/01 11:20:25;;;;;;;;;8.00;8.00;;;;;30.51;16.54;101931.19;4981254;28;46394;-63
2022/05/01 11:22:51;;;;;;;;;11.00;10.00;;;;;30.75;15.92;101931.19;4979482;28;45353;-63
2022/05/01 11:25:23;;;;;;;;;9.33;9.00;;;;;30.77;15.50;101923.63;4963943;28;45347;-63
2022/05/01 11:27:52;;;;;;;;;8.67;7.33;;;;;30.67;16.06;101921.13;4980512;28;45581;-63
2022/05/01 11:30:26;;;;;;;;;12.00;8.67;;;;;30.40;16.13;101920.59;4980676;28;46230;-63
2022/05/01 11:32:59;;;;;;;;;7.00;7.00;;;;;29.91;15.42;101920.88;4980592;28;45449;-63
2022/05/01 11:36:00;;;;;;;;;7.00;7.00;;;;;28.95;15.92;101912.47;4981042;28;45384;-63
2022/05/01 11:38:33;;;;;;;;;7.00;7.00;;;;;28.31;16.69;101913.06;4979009;28;45529;-63